createdAt,value
2022-10-15T00:00:09.849Z,69.66
2022-10-15T00:02:09.826Z,70.18
2022-10-15T00:05:09.871Z,69.54
2022-10-15T00:08:09.854Z,69.8
2022-10-15T00:10:09.852Z,69.19
2022-10-15T00:13:09.814Z,69.27
2022-10-15T00:15:09.807Z,69.23
2022-10-15T00:18:10.093Z,69.4
2022-10-15T00:21:09.807Z,69.44
2022-10-15T00:23:09.832Z,69.77
2022-10-15T00:26:09.830Z,69.54
2022-10-15T00:29:09.915Z,70.47
2022-10-15T00:31:09.805Z,70.64
2022-10-15T00:34:09.887Z,70.08
2022-10-15T00:37:09.846Z,69.49
2022-10-15T00:40:09.873Z,69.36
2022-10-15T00:42:09.918Z,70.29
2022-10-15T00:45:09.820Z,69.81
2022-10-15T00:47:09.873Z,69.54
2022-10-15T00:50:09.875Z,69.72
2022-10-15T00:53:09.816Z,69.46
2022-10-15T00:55:09.884Z,69.37
2022-10-15T00:58:09.901Z,70.08
2022-10-15T01:01:09.891Z,69.73
2022-10-15T01:04:09.848Z,71.04
2022-10-15T01:07:09.851Z,69.91
2022-10-15T01:09:09.870Z,70.43
2022-10-15T01:11:20.106Z,70.62
2022-10-15T01:13:30.377Z,69.65
2022-10-15T01:15:30.398Z,69.73
2022-10-15T01:18:20.086Z,70.33
2022-10-15T01:21:09.845Z,70.24
2022-10-15T01:24:09.886Z,69.72
2022-10-15T01:26:09.851Z,70.51
2022-10-15T01:29:09.841Z,69.72
2022-10-15T01:31:09.848Z,69.97
2022-10-15T01:34:09.908Z,70.34
2022-10-15T01:36:10.018Z,69.83
2022-10-15T01:39:09.820Z,69.91
2022-10-15T01:41:09.840Z,70
2022-10-15T01:43:09.906Z,70.15
2022-10-15T01:46:09.848Z,70.89
2022-10-15T01:48:09.847Z,70.72
2022-10-15T01:50:09.879Z,70.63
2022-10-15T01:53:09.824Z,70.19
2022-10-15T01:56:09.825Z,70.2
2022-10-15T01:58:09.847Z,70.13
2022-10-15T02:01:09.908Z,71.42
2022-10-15T02:03:09.836Z,71.01
2022-10-15T02:06:10.309Z,69.88
2022-10-15T02:09:09.854Z,70.64
2022-10-15T02:12:09.825Z,69.89
2022-10-15T02:14:09.843Z,70.04
2022-10-15T02:17:09.836Z,69.87
2022-10-15T02:20:09.828Z,70.42
2022-10-15T02:22:09.886Z,70.25
2022-10-15T02:24:09.877Z,70.26
2022-10-15T02:27:09.823Z,70.69
2022-10-15T02:29:09.897Z,70.15
2022-10-15T02:31:09.878Z,69.97
2022-10-15T02:34:09.867Z,70.1
2022-10-15T02:37:09.839Z,69.43
2022-10-15T02:39:09.830Z,69.35
2022-10-15T02:41:09.840Z,69.01
2022-10-15T02:43:09.861Z,70.08
2022-10-15T02:46:09.871Z,69.78
2022-10-15T02:48:09.885Z,70.01
2022-10-15T02:50:09.875Z,71.48
2022-10-15T02:53:09.876Z,70.48
2022-10-15T02:56:09.911Z,70.66
2022-10-15T02:59:09.821Z,70.4
2022-10-15T03:01:09.898Z,70.06
2022-10-15T03:04:09.850Z,69.83
2022-10-15T03:06:09.866Z,69.99
2022-10-15T03:08:10.209Z,69.41
2022-10-15T03:11:09.849Z,69.85
2022-10-15T03:13:09.825Z,70.14
2022-10-15T03:15:09.841Z,69.96
2022-10-15T03:18:09.901Z,70.37
2022-10-15T03:21:09.845Z,70.44
2022-10-15T03:23:09.839Z,70.25
2022-10-15T03:26:09.862Z,69.87
2022-10-15T03:28:09.888Z,69.61
2022-10-15T03:31:09.844Z,68.38
2022-10-15T03:33:10.912Z,69
2022-10-15T03:36:09.827Z,69.79
2022-10-15T03:38:09.882Z,68.56
2022-10-15T03:41:09.868Z,69.83
2022-10-15T03:43:09.876Z,70.17
2022-10-15T03:46:09.875Z,70.06
2022-10-15T03:49:09.882Z,70.61
2022-10-15T03:52:09.899Z,70.86
2022-10-15T03:54:09.917Z,71.02
2022-10-15T03:57:09.859Z,69.92
2022-10-15T03:59:09.870Z,71.01
2022-10-15T04:02:09.877Z,70.58
2022-10-15T04:04:09.897Z,72.23
2022-10-15T04:07:09.846Z,71.89
2022-10-15T04:09:09.857Z,71.18
2022-10-15T04:11:09.890Z,69.61
2022-10-15T04:14:10.064Z,70.79
2022-10-15T04:17:09.844Z,70.98
2022-10-15T04:20:09.884Z,71.31
2022-10-15T04:23:09.840Z,70.07
2022-10-15T04:25:09.859Z,71.11
2022-10-15T04:27:09.929Z,70.1
2022-10-15T04:30:09.891Z,68.61
2022-10-15T04:33:09.845Z,70.4
2022-10-15T04:35:09.896Z,70.49
2022-10-15T04:38:09.859Z,68.7
2022-10-15T04:40:09.875Z,69.61
2022-10-15T04:43:09.868Z,70.03
2022-10-15T04:46:09.888Z,70.48
2022-10-15T04:49:09.864Z,68.97
2022-10-15T04:51:09.848Z,70.83
2022-10-15T04:54:09.888Z,70.67
2022-10-15T04:57:09.816Z,69.85
2022-10-15T04:59:09.883Z,70.93
2022-10-15T05:02:09.900Z,70.78
2022-10-15T05:05:09.870Z,70.28
2022-10-15T05:08:09.866Z,70.56
2022-10-15T05:11:09.939Z,70.09
2022-10-15T05:14:09.859Z,70.29
2022-10-15T05:16:09.883Z,70.18
2022-10-15T05:18:09.884Z,69.38
2022-10-15T05:21:09.884Z,70.41
2022-10-15T05:23:09.951Z,69.9
2022-10-15T05:26:09.900Z,70.88
2022-10-15T05:29:09.891Z,70.71
2022-10-15T05:31:11.032Z,70.48
2022-10-15T05:34:09.894Z,69.76
2022-10-15T05:37:09.873Z,69.33
2022-10-15T05:39:09.866Z,70.12
2022-10-15T05:41:09.887Z,68.71
2022-10-15T05:44:09.887Z,69.42
2022-10-15T05:46:09.887Z,68.71
2022-10-15T05:48:09.902Z,68.11
2022-10-15T05:51:09.882Z,68.07
2022-10-15T05:53:09.923Z,69.15
2022-10-15T05:56:10.557Z,70.83
2022-10-15T05:59:09.891Z,69.83
2022-10-15T06:01:09.907Z,69.13
2022-10-15T06:04:09.889Z,69.8
2022-10-15T06:07:09.915Z,69.23
2022-10-15T06:09:09.909Z,69.33
2022-10-15T06:12:09.893Z,69.61
2022-10-15T06:14:09.873Z,69.72
2022-10-15T06:17:09.874Z,69.19
2022-10-15T06:19:09.895Z,68.32
2022-10-15T06:22:09.904Z,69.59
2022-10-15T06:25:09.873Z,68.16
2022-10-15T06:27:09.891Z,68.92
2022-10-15T06:30:09.889Z,69.22
2022-10-15T06:32:09.911Z,68.15
2022-10-15T06:35:09.872Z,69.2
2022-10-15T06:37:09.872Z,68.17
2022-10-15T06:39:09.903Z,69.02
2022-10-15T06:42:09.888Z,69.13
2022-10-15T06:44:09.914Z,69.56
2022-10-15T06:47:09.881Z,68.64
2022-10-15T06:50:09.877Z,68.79
2022-10-15T06:52:09.912Z,66.96
2022-10-15T06:55:09.874Z,68.42
2022-10-15T06:57:09.885Z,68.73
2022-10-15T06:59:09.923Z,68.8
2022-10-15T07:02:09.886Z,68.36
2022-10-15T07:04:09.892Z,69.76
2022-10-15T07:07:09.875Z,69.19
2022-10-15T07:09:09.914Z,69.51
2022-10-15T07:12:09.896Z,70.19
2022-10-15T07:15:09.895Z,69.43
2022-10-15T07:17:09.891Z,69.61
2022-10-15T07:19:09.930Z,69.38
2022-10-15T07:22:09.896Z,69.57
2022-10-15T07:24:09.895Z,70.6
2022-10-15T07:26:09.906Z,69.6
2022-10-15T07:29:09.884Z,69.99
2022-10-15T07:31:09.941Z,69.26
2022-10-15T07:34:09.898Z,70.94
2022-10-15T07:37:09.883Z,69.88
2022-10-15T07:40:09.876Z,70.92
2022-10-15T07:42:09.962Z,70.45
2022-10-15T07:45:09.856Z,70.46
2022-10-15T07:47:09.896Z,69.51
2022-10-15T07:49:09.936Z,69.56
2022-10-15T07:52:09.903Z,70.2
2022-10-15T07:54:09.902Z,69.79
2022-10-15T07:57:09.900Z,70.77
2022-10-15T07:59:13.050Z,69.92
2022-10-15T08:01:09.903Z,69
2022-10-15T08:04:09.889Z,71.53
2022-10-15T08:07:10.412Z,71.2
2022-10-15T08:10:09.878Z,71.04
2022-10-15T08:12:09.899Z,71.11
2022-10-15T08:14:09.921Z,70.65
2022-10-15T08:16:09.921Z,71.13
2022-10-15T08:19:09.927Z,71.43
2022-10-15T08:22:09.918Z,71.78
2022-10-15T08:25:09.896Z,71.55
2022-10-15T08:31:09.914Z,72.15
2022-10-15T08:33:09.928Z,72.37
2022-10-15T08:36:09.887Z,72.76
2022-10-15T08:38:09.902Z,72.62
2022-10-15T08:40:09.910Z,72.32
2022-10-15T08:43:09.878Z,70.52
2022-10-15T08:45:09.905Z,71.66
2022-10-15T08:47:10.568Z,72.99
2022-10-15T08:50:09.893Z,72.06
2022-10-15T08:53:09.898Z,73.39
2022-10-15T08:55:09.896Z,73.09
2022-10-15T08:58:09.946Z,72.9
2022-10-15T09:01:09.913Z,72
2022-10-15T09:04:09.926Z,72.43
2022-10-15T09:07:09.931Z,72.46
2022-10-15T09:09:09.981Z,73.48
2022-10-15T09:12:09.902Z,73.49
2022-10-15T09:14:09.917Z,74.32
2022-10-15T09:17:09.898Z,73.34
2022-10-15T09:19:10.016Z,72.63
2022-10-15T09:22:09.887Z,74.37
2022-10-15T09:24:09.906Z,74.86
2022-10-15T09:26:09.957Z,74.11
2022-10-15T09:29:09.912Z,72.27
2022-10-15T09:31:09.925Z,73.2
2022-10-15T09:34:09.938Z,72.37
2022-10-15T09:37:09.902Z,72.65
2022-10-15T09:39:09.957Z,73.35
2022-10-15T09:42:09.906Z,72.87
2022-10-15T09:45:09.922Z,73.77
2022-10-15T09:48:09.914Z,73
2022-10-15T09:51:09.946Z,73.32
2022-10-15T09:54:09.945Z,72.78
2022-10-15T09:57:09.946Z,73.15
2022-10-15T09:59:09.964Z,71.41
2022-10-15T10:01:09.928Z,72.64
2022-10-15T10:04:09.911Z,71.39
2022-10-15T10:07:09.943Z,71.6
2022-10-15T10:09:09.970Z,70.72
2022-10-15T10:12:09.924Z,69.87
2022-10-15T10:14:09.954Z,68.32
2022-10-15T10:17:09.939Z,68.7
2022-10-15T10:20:09.919Z,68.23
2022-10-15T10:23:09.919Z,68.72
2022-10-15T10:25:09.949Z,67.59
2022-10-15T10:28:09.918Z,68.31
2022-10-15T10:30:09.975Z,68.69
2022-10-15T10:33:09.954Z,66.6
2022-10-15T10:35:09.991Z,69.01
2022-10-15T10:38:09.998Z,67.52
2022-10-15T10:41:09.949Z,66.58
2022-10-15T10:43:09.974Z,68.39
2022-10-15T10:46:09.972Z,68.22
2022-10-15T10:49:09.974Z,66.39
2022-10-15T10:52:09.937Z,66.55
2022-10-15T10:55:09.923Z,65.91
2022-10-15T10:57:09.975Z,67.25
2022-10-15T11:00:09.941Z,66.27
2022-10-15T11:02:10.020Z,65.07
2022-10-15T11:05:09.942Z,64.74
2022-10-15T11:07:09.944Z,65
2022-10-15T11:10:10.746Z,65.05
2022-10-15T11:15:09.925Z,64.84
2022-10-15T11:18:09.940Z,65.05
2022-10-15T11:21:09.936Z,65.89
2022-10-15T11:23:09.929Z,66.67
2022-10-15T11:25:09.978Z,66.6
2022-10-15T11:28:09.950Z,66.97
2022-10-15T11:31:09.969Z,65.82
2022-10-15T11:33:10.423Z,66.06
2022-10-15T11:36:09.986Z,66.21
2022-10-15T11:39:09.931Z,65.66
2022-10-15T11:41:09.935Z,66.36
2022-10-15T11:44:09.927Z,66.31
2022-10-15T11:46:09.995Z,65.37
2022-10-15T11:49:09.926Z,65.66
2022-10-15T11:51:09.966Z,66.49
2022-10-15T11:54:09.945Z,66.75
2022-10-15T11:57:10.690Z,66.55
2022-10-15T12:00:09.952Z,67.53
2022-10-15T12:03:09.970Z,66.74
2022-10-15T12:05:09.965Z,67.38
2022-10-15T12:08:09.985Z,68.41
2022-10-15T12:11:09.946Z,68.29
2022-10-15T12:13:09.951Z,68.42
2022-10-15T12:16:09.950Z,67.62
2022-10-15T12:18:10.016Z,68.09
2022-10-15T12:21:17.153Z,68.16
2022-10-15T12:24:09.937Z,68.2
2022-10-15T12:26:10.018Z,68.11
2022-10-15T12:29:09.958Z,67.89
2022-10-15T12:31:09.964Z,68.42
2022-10-15T12:34:09.948Z,68.33
2022-10-15T12:37:10.054Z,68.97
2022-10-15T12:40:09.944Z,69.94
2022-10-15T12:42:10.054Z,69.96
2022-10-15T12:45:09.985Z,70.2
2022-10-15T12:47:10.000Z,70.18
2022-10-15T12:49:09.986Z,69.92
2022-10-15T12:52:09.959Z,70.74
2022-10-15T12:54:09.948Z,70.65
2022-10-15T12:56:09.981Z,70.66
2022-10-15T12:58:09.960Z,70.29
2022-10-15T13:00:10.038Z,71.54
2022-10-15T13:03:10.002Z,70.83
2022-10-15T13:06:09.972Z,71.41
2022-10-15T13:08:09.970Z,71.71
2022-10-15T13:11:10.054Z,72.05
2022-10-15T13:14:09.989Z,70.4
2022-10-15T13:16:09.971Z,70.98
2022-10-15T13:19:10.047Z,70.65
2022-10-15T13:22:09.969Z,70.46
2022-10-15T13:24:09.988Z,71
2022-10-15T13:27:09.986Z,71.33
2022-10-15T13:30:10.143Z,72.08
2022-10-15T13:33:09.945Z,72.38
2022-10-15T13:35:09.979Z,72.34
2022-10-15T13:38:09.978Z,72.83
2022-10-15T13:41:09.987Z,73.14
2022-10-15T13:43:09.990Z,73.14
2022-10-15T13:46:09.970Z,72.89
2022-10-15T13:49:10.010Z,72.84
2022-10-15T13:52:09.966Z,72.64
2022-10-15T13:55:10.004Z,72.99
2022-10-15T13:58:09.960Z,72.39
2022-10-15T14:00:10.144Z,72.39
2022-10-15T14:03:10.007Z,72.86
2022-10-15T14:06:09.977Z,72.91
2022-10-15T14:09:09.954Z,73.03
2022-10-15T14:11:10.000Z,73.22
2022-10-15T14:14:09.956Z,73.02
2022-10-15T14:16:10.035Z,73.01
2022-10-15T14:19:09.989Z,72.99
2022-10-15T14:22:09.975Z,73.33
2022-10-15T14:24:09.984Z,72.88
2022-10-15T14:26:09.960Z,73.02
2022-10-15T14:29:09.960Z,73.4
2022-10-15T14:31:10.435Z,73.58
2022-10-15T14:34:10.014Z,73.48
2022-10-15T14:36:09.988Z,73.46
2022-10-15T14:39:09.977Z,73.3
2022-10-15T14:41:10.002Z,73.29
2022-10-15T14:44:09.986Z,73.2
2022-10-15T14:46:09.986Z,73.33
2022-10-15T14:48:10.029Z,73.35
2022-10-15T14:51:10.005Z,73.36
2022-10-15T14:53:10.018Z,73.56
2022-10-15T14:56:09.987Z,73.49
2022-10-15T14:58:09.974Z,73.27
2022-10-15T15:00:10.059Z,74.17
2022-10-15T15:03:10.075Z,73.98
2022-10-15T15:05:10.034Z,74.19
2022-10-15T15:08:10.002Z,74.08
2022-10-15T15:10:09.999Z,74.2
2022-10-15T15:12:09.998Z,74.66
2022-10-15T15:15:09.995Z,74.22
2022-10-15T15:17:10.042Z,74.12
2022-10-15T15:20:09.992Z,73.6
2022-10-15T15:22:09.998Z,73.72
2022-10-15T15:25:10.028Z,73.31
2022-10-15T15:27:10.045Z,73.27
2022-10-15T15:33:10.033Z,72.93
2022-10-15T15:36:10.054Z,72.45
2022-10-15T15:39:10.003Z,72.43
2022-10-15T15:41:10.001Z,72.48
2022-10-15T15:44:10.061Z,72.3
2022-10-15T15:47:10.007Z,72.11
2022-10-15T15:49:10.044Z,72.31
2022-10-15T15:52:09.987Z,72.01
2022-10-15T15:54:09.991Z,71.9
2022-10-15T15:57:10.011Z,71.95
2022-10-15T15:59:10.043Z,72
2022-10-15T16:02:10.135Z,72.14
2022-10-15T16:05:10.046Z,72.29
2022-10-15T16:08:10.042Z,72.14
2022-10-15T16:11:10.015Z,72.14
2022-10-15T16:13:09.987Z,71.92
2022-10-15T16:15:11.579Z,71.87
2022-10-15T16:18:10.037Z,71.81
2022-10-15T16:21:10.024Z,71.62
2022-10-15T16:23:10.045Z,71.81
2022-10-15T16:26:10.096Z,71.75
2022-10-15T16:29:09.984Z,71.76
2022-10-15T16:31:10.001Z,71.78
2022-10-15T16:33:10.116Z,71.67
2022-10-15T16:36:09.993Z,71.18
2022-10-15T16:38:10.032Z,71.59
2022-10-15T16:41:10.029Z,71.54
2022-10-15T16:44:10.028Z,71.64
2022-10-15T16:46:10.057Z,71.26
2022-10-15T16:48:10.115Z,71.48
2022-10-15T16:51:10.015Z,71.36
2022-10-15T16:54:10.075Z,71.46
2022-10-15T16:57:10.002Z,71.2
2022-10-15T16:59:10.004Z,71.44
2022-10-15T17:02:10.130Z,71.5
2022-10-15T17:05:10.037Z,71.7
2022-10-15T17:08:12.954Z,71.61
2022-10-15T17:10:12.234Z,71.91
2022-10-15T17:12:10.077Z,71.8
2022-10-15T17:14:10.113Z,71.91
2022-10-15T17:17:10.070Z,71.9
2022-10-15T17:20:10.075Z,71.6
2022-10-15T17:23:10.006Z,71.03
2022-10-15T17:26:10.052Z,70.54
2022-10-15T17:29:10.035Z,70.35
2022-10-15T17:31:10.051Z,70.29
2022-10-15T17:34:10.063Z,70.23
2022-10-15T17:36:10.077Z,70.33
2022-10-15T17:39:10.005Z,70.24
2022-10-15T17:41:10.036Z,70.42
2022-10-15T17:43:10.013Z,69.79
2022-10-15T17:45:10.152Z,70.03
2022-10-15T17:48:10.017Z,70
2022-10-15T17:50:10.076Z,69.96
2022-10-15T17:53:10.041Z,69.6
2022-10-15T17:55:10.053Z,69.75
2022-10-15T17:57:10.042Z,69.86
2022-10-15T18:00:10.018Z,69.86
2022-10-15T18:02:10.125Z,70.11
2022-10-15T18:04:10.075Z,69.98
2022-10-15T18:07:10.054Z,69.81
2022-10-15T18:09:10.038Z,69.87
2022-10-15T18:11:10.049Z,70.4
2022-10-15T18:13:10.076Z,70.53
2022-10-15T18:15:10.146Z,70.43
2022-10-15T18:18:10.057Z,70.16
2022-10-15T18:20:10.051Z,70.29
2022-10-15T18:23:10.103Z,70.2
2022-10-15T18:26:10.083Z,70.15
2022-10-15T18:29:10.072Z,70.18
2022-10-15T18:31:10.056Z,70.59
2022-10-15T18:34:10.066Z,70.45
2022-10-15T18:36:10.064Z,70.59
2022-10-15T18:39:10.081Z,70.79
2022-10-15T18:42:10.057Z,70.53
2022-10-15T18:45:10.037Z,69.98
2022-10-15T18:48:10.098Z,69.7
2022-10-15T18:51:10.038Z,70.45
2022-10-15T18:54:10.079Z,70.67
2022-10-15T18:56:10.087Z,70.81
2022-10-15T18:59:10.048Z,70.74
2022-10-15T19:01:10.098Z,70.65
2022-10-15T19:03:10.043Z,70.62
2022-10-15T19:06:10.078Z,70.12
2022-10-15T19:08:10.074Z,70.87
2022-10-15T19:11:10.106Z,70.68
2022-10-15T19:14:10.085Z,70.83
2022-10-15T19:17:10.050Z,70.62
2022-10-15T19:20:10.081Z,71.34
2022-10-15T19:23:10.069Z,70.76
2022-10-15T19:25:10.059Z,71.04
2022-10-15T19:28:10.054Z,71.01
2022-10-15T19:30:10.229Z,71.59
2022-10-15T19:32:10.695Z,71.23
2022-10-15T19:35:10.128Z,71.33
2022-10-15T19:38:10.037Z,71.4
2022-10-15T19:41:10.083Z,71.44
2022-10-15T19:43:10.103Z,71.49
2022-10-15T19:46:10.048Z,71.97
2022-10-15T19:49:10.077Z,71.45
2022-10-15T19:51:10.073Z,71.73
2022-10-15T19:54:10.119Z,71.53
2022-10-15T19:57:10.082Z,71.56
2022-10-15T20:00:10.046Z,71.33
2022-10-15T20:02:10.052Z,71.3
2022-10-15T20:05:10.051Z,71.57
2022-10-15T20:08:10.067Z,71.03
2022-10-15T20:10:10.054Z,71.31
2022-10-15T20:12:10.055Z,71.67
2022-10-15T20:14:10.088Z,71.71
2022-10-15T20:17:10.050Z,71.64
2022-10-15T20:19:10.099Z,71.24
2022-10-15T20:22:10.046Z,70.96
2022-10-15T20:24:10.107Z,71
2022-10-15T20:27:10.091Z,70.93
2022-10-15T20:30:10.067Z,70.92
2022-10-15T20:32:11.192Z,71.47
2022-10-15T20:35:10.103Z,71.01
2022-10-15T20:38:10.087Z,71.36
2022-10-15T20:41:10.077Z,71.08
2022-10-15T20:43:10.114Z,71.43
2022-10-15T20:46:10.164Z,71.08
2022-10-15T20:49:10.072Z,70.84
2022-10-15T20:51:10.446Z,71.08
2022-10-15T20:54:10.160Z,71.05
2022-10-15T20:57:10.075Z,70.84
2022-10-15T20:59:10.104Z,70.71
2022-10-15T21:02:10.083Z,70.81
2022-10-15T21:05:10.084Z,70.35
2022-10-15T21:07:10.101Z,70.76
2022-10-15T21:10:10.147Z,71.21
2022-10-15T21:13:10.062Z,70.95
2022-10-15T21:15:10.089Z,71.38
2022-10-15T21:18:10.079Z,70.7
2022-10-15T21:21:10.144Z,71.21
2022-10-15T21:24:10.101Z,71.31
2022-10-15T21:26:10.116Z,70.91
2022-10-15T21:29:10.148Z,71.36
2022-10-15T21:32:10.085Z,71.88
2022-10-15T21:34:10.121Z,71.54
2022-10-15T21:36:10.082Z,71.7
2022-10-15T21:38:10.116Z,71.14
2022-10-15T21:40:10.152Z,71.63
2022-10-15T21:43:10.085Z,71.29
2022-10-15T21:45:10.137Z,71.56
2022-10-15T21:47:11.622Z,71.7
2022-10-15T21:50:10.117Z,71.36
2022-10-15T21:53:10.092Z,71.21
2022-10-15T21:55:10.098Z,71.86
2022-10-15T21:58:10.106Z,71.67
2022-10-15T22:01:10.128Z,71.35
2022-10-15T22:03:10.114Z,71.75
2022-10-15T22:06:10.105Z,72.2
2022-10-15T22:08:10.121Z,71.52
2022-10-15T22:11:10.145Z,71.43
2022-10-15T22:13:10.132Z,71.2
2022-10-15T22:16:10.134Z,71.71
2022-10-15T22:19:10.099Z,71.62
2022-10-15T22:21:10.147Z,71.94
2022-10-15T22:24:10.097Z,71.43
2022-10-15T22:26:10.104Z,71.23
2022-10-15T22:28:10.105Z,71.29
2022-10-15T22:30:10.118Z,71.6
2022-10-15T22:34:10.101Z,71.61
2022-10-15T22:37:10.121Z,71.53
2022-10-15T22:39:10.145Z,71.22
2022-10-15T22:42:10.134Z,71.09
2022-10-15T22:45:10.118Z,71.11
2022-10-15T22:47:10.125Z,71.29
2022-10-15T22:49:10.183Z,71.34
2022-10-15T22:52:10.145Z,71.57
2022-10-15T22:54:10.133Z,71.28
2022-10-15T22:57:10.201Z,71.34
2022-10-15T23:00:10.118Z,71.25
2022-10-15T23:02:10.095Z,71.23
2022-10-15T23:05:10.121Z,71.43
2022-10-15T23:11:10.112Z,71.31
2022-10-15T23:14:10.145Z,71.2
2022-10-15T23:17:10.215Z,71.38
2022-10-15T23:19:10.111Z,71.22
2022-10-15T23:22:10.125Z,71.32
2022-10-15T23:24:10.136Z,71.3
2022-10-15T23:27:10.133Z,71.51
2022-10-15T23:29:10.125Z,71.3
2022-10-15T23:32:10.143Z,71.36
2022-10-15T23:35:10.129Z,71.33
2022-10-15T23:38:10.125Z,70.8
2022-10-15T23:41:10.121Z,70.95
2022-10-15T23:44:10.121Z,71.29
2022-10-15T23:47:10.106Z,70.75
2022-10-15T23:49:10.134Z,70.82
2022-10-15T23:51:10.108Z,71.27
2022-10-15T23:54:10.152Z,71.16
2022-10-15T23:56:10.134Z,71.4
2022-10-15T23:59:10.122Z,71.8
